Time;durP1;ratioP1;P1;durP2;ratioP2;P2;SDS_P1;SDS_P2;PMS_P1;PMS_P2;Temp;Humidity;BMP_temperature;BMP_pressure;BME280_temperature;BME280_humidity;BME280_pressure;Samples;Min_cycle;Max_cycle;Signal;HPM_P1;HPM_P2
2021/11/27 00:00:20;;;;;;;4.85;0.75;;;;;;;;;;5075666;28;20039;-65
2021/11/27 00:02:46;;;;;;;2.67;0.73;;;;;;;;;;5075416;28;20068;-64
2021/11/27 00:05:13;;;;;;;4.97;0.80;;;;;;;;;;5075430;28;20099;-64
2021/11/27 00:07:39;;;;;;;2.38;0.68;;;;;;;;;;5075410;28;20115;-67
2021/11/27 00:10:08;;;;;;;14.55;1.02;;;;;;;;;;5074564;28;20067;-65
2021/11/27 00:12:34;;;;;;;5.70;0.75;;;;;;;;;;5074896;28;20052;-65
2021/11/27 00:15:00;;;;;;;3.67;0.82;;;;;;;;;;5075424;28;20036;-65
2021/11/27 00:17:26;;;;;;;8.07;0.90;;;;;;;;;;5074525;28;20025;-66
2021/11/27 00:19:52;;;;;;;12.95;1.10;;;;;;;;;;5075296;28;20020;-64
2021/11/27 00:22:18;;;;;;;7.07;1.02;;;;;;;;;;5075196;28;20086;-66
2021/11/27 00:24:44;;;;;;;9.48;0.90;;;;;;;;;;5075059;28;20129;-66
2021/11/27 00:27:10;;;;;;;6.63;0.90;;;;;;;;;;5074998;28;20066;-65
2021/11/27 00:29:37;;;;;;;2.35;0.70;;;;;;;;;;5075147;28;20028;-65
2021/11/27 00:32:03;;;;;;;14.10;0.80;;;;;;;;;;5074815;28;20032;-65
2021/11/27 00:34:29;;;;;;;3.83;0.90;;;;;;;;;;5073996;28;20032;-66
2021/11/27 00:36:55;;;;;;;9.13;0.77;;;;;;;;;;5074862;28;20028;-65
2021/11/27 00:39:22;;;;;;;4.18;0.90;;;;;;;;;;5074809;28;20039;-65
2021/11/27 00:41:48;;;;;;;5.97;0.80;;;;;;;;;;5074976;28;20029;-65
2021/11/27 00:44:14;;;;;;;11.63;0.88;;;;;;;;;;5074931;28;20035;-66
2021/11/27 00:46:40;;;;;;;11.60;0.80;;;;;;;;;;5074518;28;20494;-65
2021/11/27 00:49:06;;;;;;;4.40;1.02;;;;;;;;;;5074311;28;20036;-65
2021/11/27 00:51:33;;;;;;;7.07;1.10;;;;;;;;;;5056737;28;20035;-65
2021/11/27 00:53:59;;;;;;;9.23;0.93;;;;;;;;;;5073795;28;20055;-65
2021/11/27 00:56:26;;;;;;;6.82;1.02;;;;;;;;;;5074338;28;20032;-65
2021/11/27 00:58:52;;;;;;;3.03;0.90;;;;;;;;;;5074185;28;20025;-65
2021/11/27 01:01:21;;;;;;;5.60;0.80;;;;;;;;;;5074449;28;20064;-65
2021/11/27 01:03:47;;;;;;;9.52;0.90;;;;;;;;;;5074339;28;20025;-64
2021/11/27 01:06:16;;;;;;;10.77;0.90;;;;;;;;;;5073958;28;20095;-64
2021/11/27 01:08:42;;;;;;;13.35;1.13;;;;;;;;;;5074077;28;20016;-64
2021/11/27 01:11:08;;;;;;;6.35;1.05;;;;;;;;;;5056123;28;20041;-64
2021/11/27 01:13:36;;;;;;;12.73;1.20;;;;;;;;;;5094056;28;20097;-64
2021/11/27 01:16:03;;;;;;;11.07;1.67;;;;;;;;;;5094243;28;20063;-64
2021/11/27 01:18:28;;;;;;;7.57;0.95;;;;;;;;;;5094149;28;20459;-65
2021/11/27 01:20:57;;;;;;;13.70;0.77;;;;;;;;;;5078549;28;20039;-65
2021/11/27 01:23:23;;;;;;;2.75;0.80;;;;;;;;;;5073884;28;20103;-65
2021/11/27 01:25:49;;;;;;;2.33;0.80;;;;;;;;;;5055947;28;20024;-65
2021/11/27 01:28:17;;;;;;;7.30;1.00;;;;;;;;;;5055791;28;20460;-64
2021/11/27 01:30:47;;;;;;;2.85;0.90;;;;;;;;;;5055374;28;20039;-64
2021/11/27 01:33:13;;;;;;;8.48;1.00;;;;;;;;;;5073898;28;20054;-65
2021/11/27 01:35:40;;;;;;;3.67;0.95;;;;;;;;;;5072789;28;20024;-66
2021/11/27 01:38:07;;;;;;;6.20;0.60;;;;;;;;;;5073478;28;20024;-66
2021/11/27 01:40:34;;;;;;;3.25;0.70;;;;;;;;;;5073710;28;20020;-64
2021/11/27 01:43:00;;;;;;;8.55;1.33;;;;;;;;;;5073363;28;20112;-65
2021/11/27 01:45:26;;;;;;;5.22;0.60;;;;;;;;;;5073463;28;20155;-65
2021/11/27 01:47:54;;;;;;;6.03;0.88;;;;;;;;;;5073232;28;20028;-65
2021/11/27 01:50:21;;;;;;;1.90;0.70;;;;;;;;;;5073172;28;20059;-64
2021/11/27 01:52:47;;;;;;;3.38;0.73;;;;;;;;;;5072764;28;20029;-65
2021/11/27 01:55:13;;;;;;;11.07;1.10;;;;;;;;;;5065670;28;20033;-64
2021/11/27 01:57:41;;;;;;;8.15;0.90;;;;;;;;;;5053422;28;20021;-64
2021/11/27 02:00:13;;;;;;;11.18;0.70;;;;;;;;;;5053254;28;20021;-65
2021/11/27 02:02:39;;;;;;;2.65;0.70;;;;;;;;;;5051745;28;20469;-64
2021/11/27 02:05:06;;;;;;;3.33;0.65;;;;;;;;;;5053151;28;20377;-65
2021/11/27 02:07:32;;;;;;;0.98;0.60;;;;;;;;;;5067502;28;20032;-65
2021/11/27 02:09:58;;;;;;;5.53;0.70;;;;;;;;;;5073205;28;20049;-66
2021/11/27 02:12:24;;;;;;;3.60;0.80;;;;;;;;;;5072809;28;20063;-65
2021/11/27 02:14:50;;;;;;;4.05;0.50;;;;;;;;;;5072960;28;20834;-65
2021/11/27 02:17:16;;;;;;;6.78;0.80;;;;;;;;;;5072950;28;20036;-65
2021/11/27 02:19:42;;;;;;;3.08;0.70;;;;;;;;;;5072701;28;20025;-65
2021/11/27 02:22:08;;;;;;;2.92;0.70;;;;;;;;;;5072939;28;20063;-65
2021/11/27 02:24:35;;;;;;;8.05;0.70;;;;;;;;;;5072794;28;20031;-66
2021/11/27 02:27:01;;;;;;;2.67;0.70;;;;;;;;;;5071883;28;20501;-65
2021/11/27 02:29:28;;;;;;;7.25;0.60;;;;;;;;;;5072731;28;20439;-65
2021/11/27 02:31:55;;;;;;;2.85;0.60;;;;;;;;;;5072676;28;20031;-66
2021/11/27 02:34:21;;;;;;;7.10;0.60;;;;;;;;;;5054363;28;20029;-65
2021/11/27 02:36:51;;;;;;;3.13;0.65;;;;;;;;;;5073122;28;20028;-65
2021/11/27 02:39:19;;;;;;;6.07;0.93;;;;;;;;;;5072933;28;20032;-65
2021/11/27 02:41:44;;;;;;;5.20;0.90;;;;;;;;;;5072505;28;20021;-65
2021/11/27 02:44:11;;;;;;;6.22;0.65;;;;;;;;;;5071754;28;20052;-65
2021/11/27 02:46:37;;;;;;;8.85;0.80;;;;;;;;;;5072605;28;20033;-65
2021/11/27 02:49:04;;;;;;;7.35;0.65;;;;;;;;;;5072612;28;20031;-65
2021/11/27 02:51:30;;;;;;;3.67;0.70;;;;;;;;;;5054651;28;20464;-65
2021/11/27 02:53:56;;;;;;;3.08;0.60;;;;;;;;;;5072306;28;20019;-65
2021/11/27 02:56:22;;;;;;;2.72;0.40;;;;;;;;;;5054486;28;20025;-65
2021/11/27 02:58:48;;;;;;;2.28;0.50;;;;;;;;;;5054654;28;20383;-65
2021/11/27 03:01:15;;;;;;;2.28;0.73;;;;;;;;;;5072466;28;20082;-65
2021/11/27 03:03:41;;;;;;;10.00;0.60;;;;;;;;;;5072751;28;20056;-65
2021/11/27 03:06:07;;;;;;;6.20;0.65;;;;;;;;;;5072615;28;20059;-65
2021/11/27 03:08:33;;;;;;;5.68;0.70;;;;;;;;;;5072517;28;20440;-65
2021/11/27 03:10:59;;;;;;;6.32;0.60;;;;;;;;;;5072398;28;20453;-65
2021/11/27 03:13:33;;;;;;;2.65;0.55;;;;;;;;;;5072172;28;20052;-64
2021/11/27 03:15:59;;;;;;;3.03;0.60;;;;;;;;;;5072506;28;20032;-64
2021/11/27 03:18:25;;;;;;;2.65;0.65;;;;;;;;;;5072267;28;20097;-66
2021/11/27 03:20:52;;;;;;;1.85;0.40;;;;;;;;;;5053887;28;20116;-64
2021/11/27 03:23:19;;;;;;;1.95;0.50;;;;;;;;;;5054253;28;20451;-64
2021/11/27 03:25:45;;;;;;;4.40;0.60;;;;;;;;;;5072327;28;20032;-65
2021/11/27 03:28:11;;;;;;;1.17;0.50;;;;;;;;;;5054410;28;20077;-64
2021/11/27 03:30:37;;;;;;;1.13;0.45;;;;;;;;;;5072234;28;20036;-64
2021/11/27 03:33:03;;;;;;;5.22;0.50;;;;;;;;;;5072595;28;20032;-63
2021/11/27 03:35:29;;;;;;;7.65;0.70;;;;;;;;;;5072352;28;20033;-64
2021/11/27 03:37:55;;;;;;;3.60;0.60;;;;;;;;;;5072673;28;20059;-64
2021/11/27 03:40:21;;;;;;;3.60;0.60;;;;;;;;;;5072016;28;20052;-64
2021/11/27 03:42:47;;;;;;;5.30;0.77;;;;;;;;;;5072241;28;20025;-65
2021/11/27 03:45:15;;;;;;;6.70;1.05;;;;;;;;;;5050617;28;20520;-64
2021/11/27 03:48:13;;;;;;;5.22;0.70;;;;;;;;;;5055747;28;20040;-64
2021/11/27 03:50:45;;;;;;;5.15;0.70;;;;;;;;;;5011765;28;20048;-64
2021/11/27 03:53:14;;;;;;;5.57;0.67;;;;;;;;;;5055697;28;20025;-64
2021/11/27 03:55:40;;;;;;;1.63;0.50;;;;;;;;;;5073877;28;20371;-64
2021/11/27 03:58:06;;;;;;;1.83;0.52;;;;;;;;;;5075656;28;20494;-66
2021/11/27 04:00:32;;;;;;;4.45;0.70;;;;;;;;;;5075469;28;20465;-64
2021/11/27 04:02:58;;;;;;;3.95;0.73;;;;;;;;;;5074768;28;20083;-64
2021/11/27 04:05:25;;;;;;;7.15;0.50;;;;;;;;;;5075828;28;20024;-64
2021/11/27 04:07:57;;;;;;;3.97;0.50;;;;;;;;;;5075459;28;20020;-64
2021/11/27 04:10:24;;;;;;;8.32;0.68;;;;;;;;;;5057373;28;20039;-65
2021/11/27 04:12:51;;;;;;;1.70;0.50;;;;;;;;;;5074895;28;20106;-64
2021/11/27 04:15:17;;;;;;;4.38;0.40;;;;;;;;;;5075143;28;20115;-65
2021/11/27 04:17:43;;;;;;;3.22;0.45;;;;;;;;;;5075136;28;20046;-65
2021/11/27 04:20:10;;;;;;;2.38;0.50;;;;;;;;;;5074898;28;20021;-65
2021/11/27 04:22:36;;;;;;;1.65;0.50;;;;;;;;;;5075285;28;20032;-64
2021/11/27 04:25:02;;;;;;;0.63;0.50;;;;;;;;;;5057025;28;20085;-65
2021/11/27 04:27:28;;;;;;;1.98;0.50;;;;;;;;;;5074944;28;20029;-65
2021/11/27 04:29:54;;;;;;;3.15;0.60;;;;;;;;;;5056621;28;20044;-65
2021/11/27 04:32:20;;;;;;;2.75;0.43;;;;;;;;;;5074996;28;20059;-64
2021/11/27 04:34:46;;;;;;;6.45;0.50;;;;;;;;;;5074844;28;20073;-65
2021/11/27 04:37:14;;;;;;;5.50;0.50;;;;;;;;;;5074938;28;20107;-64
2021/11/27 04:39:40;;;;;;;1.42;0.50;;;;;;;;;;5054845;28;20028;-66
2021/11/27 04:42:06;;;;;;;4.38;0.40;;;;;;;;;;5054694;28;20473;-64
2021/11/27 04:44:33;;;;;;;13.65;0.70;;;;;;;;;;5054630;28;20448;-66
2021/11/27 04:46:59;;;;;;;6.32;0.80;;;;;;;;;;5054330;28;20021;-65
2021/11/27 04:49:25;;;;;;;5.75;0.90;;;;;;;;;;5054413;28;20516;-65
2021/11/27 04:51:51;;;;;;;2.95;0.60;;;;;;;;;;5054645;28;20035;-63
2021/11/27 04:54:17;;;;;;;2.10;0.50;;;;;;;;;;5059336;28;20036;-63
2021/11/27 04:56:43;;;;;;;3.55;0.50;;;;;;;;;;5093850;28;20064;-63
2021/11/27 04:59:09;;;;;;;4.40;0.50;;;;;;;;;;5094263;28;20063;-65
2021/11/27 05:01:35;;;;;;;3.00;0.50;;;;;;;;;;5094810;28;20027;-65
2021/11/27 05:04:01;;;;;;;4.20;0.55;;;;;;;;;;5094477;28;20024;-64
2021/11/27 05:06:27;;;;;;;8.25;0.68;;;;;;;;;;5089042;28;20028;-63
2021/11/27 05:08:53;;;;;;;8.82;0.88;;;;;;;;;;5074340;28;20491;-65
2021/11/27 05:11:19;;;;;;;6.82;0.70;;;;;;;;;;5074192;28;20032;-64
2021/11/27 05:13:46;;;;;;;11.80;1.00;;;;;;;;;;5073920;28;20049;-63
2021/11/27 05:16:11;;;;;;;3.97;0.60;;;;;;;;;;5074193;28;20036;-63
2021/11/27 05:18:38;;;;;;;12.35;1.02;;;;;;;;;;5073869;28;20021;-63
2021/11/27 05:21:04;;;;;;;9.55;0.60;;;;;;;;;;5074030;28;20039;-63
2021/11/27 05:23:30;;;;;;;3.60;0.60;;;;;;;;;;5073648;28;20031;-65
2021/11/27 05:25:57;;;;;;;9.05;0.70;;;;;;;;;;5055778;28;20033;-63
2021/11/27 05:28:23;;;;;;;15.60;0.95;;;;;;;;;;5072711;28;20184;-64
2021/11/27 05:30:49;;;;;;;6.22;0.70;;;;;;;;;;5073490;28;20166;-64
2021/11/27 05:33:16;;;;;;;9.65;0.70;;;;;;;;;;5073695;28;20021;-65
2021/11/27 05:35:43;;;;;;;10.13;0.77;;;;;;;;;;5073675;28;20150;-66
2021/11/27 05:38:09;;;;;;;6.05;0.77;;;;;;;;;;5073536;28;20025;-64
2021/11/27 05:40:36;;;;;;;11.85;0.70;;;;;;;;;;5073618;28;20073;-64
2021/11/27 05:43:03;;;;;;;13.35;0.80;;;;;;;;;;5055466;28;20036;-63
2021/11/27 05:45:29;;;;;;;10.98;0.85;;;;;;;;;;5073428;28;20129;-64
2021/11/27 05:47:58;;;;;;;20.95;1.00;;;;;;;;;;5073192;28;20154;-63
2021/11/27 05:50:24;;;;;;;3.80;0.70;;;;;;;;;;5073341;28;20047;-63
2021/11/27 05:52:51;;;;;;;14.35;0.90;;;;;;;;;;5055398;28;20118;-64
2021/11/27 05:55:18;;;;;;;10.05;0.75;;;;;;;;;;5074583;28;20077;-62
2021/11/27 05:57:44;;;;;;;19.02;0.95;;;;;;;;;;5093701;28;20024;-63
2021/11/27 06:00:11;;;;;;;27.33;1.00;;;;;;;;;;5093431;28;20034;-63
2021/11/27 06:02:37;;;;;;;11.55;0.90;;;;;;;;;;5070173;28;20032;-64
2021/11/27 06:05:03;;;;;;;19.48;0.98;;;;;;;;;;5071850;28;20040;-63
2021/11/27 06:07:30;;;;;;;5.32;0.70;;;;;;;;;;5071321;28;20032;-66
2021/11/27 06:09:56;;;;;;;10.60;0.80;;;;;;;;;;5072406;28;20036;-70
2021/11/27 06:12:22;;;;;;;8.63;1.13;;;;;;;;;;5071196;28;20392;-64
2021/11/27 06:14:49;;;;;;;5.22;0.70;;;;;;;;;;5072380;28;20020;-65
2021/11/27 06:17:15;;;;;;;9.20;0.73;;;;;;;;;;5072343;28;20029;-64
2021/11/27 06:19:41;;;;;;;8.68;1.75;;;;;;;;;;5072486;28;20099;-68
2021/11/27 06:22:07;;;;;;;4.35;0.93;;;;;;;;;;5072903;28;20052;-62
2021/11/27 06:24:33;;;;;;;5.53;0.82;;;;;;;;;;5073248;28;20425;-69
2021/11/27 06:26:58;;;;;;;25.30;1.08;;;;;;;;;;5054608;28;20032;-68
2021/11/27 06:29:25;;;;;;;8.80;0.88;;;;;;;;;;5073412;28;20020;-67
2021/11/27 06:31:51;;;;;;;5.72;0.80;;;;;;;;;;5073034;28;20086;-65
2021/11/27 06:34:17;;;;;;;8.07;0.70;;;;;;;;;;5072795;28;20024;-65
2021/11/27 06:36:43;;;;;;;17.35;0.77;;;;;;;;;;5072925;28;20035;-66
2021/11/27 06:39:09;;;;;;;13.15;0.60;;;;;;;;;;5054693;28;20029;-65
2021/11/27 06:41:35;;;;;;;3.40;0.70;;;;;;;;;;5072817;28;20082;-65
2021/11/27 06:44:01;;;;;;;3.80;0.85;;;;;;;;;;5072108;28;20091;-65
2021/11/27 06:46:27;;;;;;;3.38;0.70;;;;;;;;;;5071314;28;20072;-65
2021/11/27 06:48:53;;;;;;;4.82;0.68;;;;;;;;;;5071921;28;20029;-66
2021/11/27 06:51:19;;;;;;;28.40;0.80;;;;;;;;;;5072618;28;20040;-65
2021/11/27 06:53:45;;;;;;;2.67;0.55;;;;;;;;;;5072471;28;20021;-65
2021/11/27 06:56:11;;;;;;;4.75;0.85;;;;;;;;;;5072426;28;20455;-66
2021/11/27 06:58:37;;;;;;;3.47;0.70;;;;;;;;;;5072898;28;20032;-65
2021/11/27 07:01:04;;;;;;;4.63;0.73;;;;;;;;;;5071679;28;20177;-65
2021/11/27 07:03:30;;;;;;;5.72;0.70;;;;;;;;;;5072419;28;20067;-65
2021/11/27 07:05:56;;;;;;;1.65;0.75;;;;;;;;;;5072363;28;20029;-65
2021/11/27 07:08:22;;;;;;;8.45;1.02;;;;;;;;;;5072480;28;20399;-65
2021/11/27 07:10:50;;;;;;;4.25;0.90;;;;;;;;;;5072522;28;20036;-65
2021/11/27 07:13:16;;;;;;;2.55;0.80;;;;;;;;;;5072297;28;20088;-66
2021/11/27 07:15:42;;;;;;;17.58;1.48;;;;;;;;;;5072198;28;20082;-65
2021/11/27 07:18:08;;;;;;;19.90;2.03;;;;;;;;;;5072158;28;20424;-65
2021/11/27 07:20:34;;;;;;;70.00;3.55;;;;;;;;;;5075264;28;20021;-67
2021/11/27 07:23:00;;;;;;;32.35;2.67;;;;;;;;;;5076275;28;20024;-74
2021/11/27 07:25:30;;;;;;;50.47;1.75;;;;;;;;;;5059116;28;20020;-72
2021/11/27 07:27:56;;;;;;;36.17;2.10;;;;;;;;;;5076907;28;20095;-72
2021/11/27 07:30:22;;;;;;;18.15;1.42;;;;;;;;;;5076055;28;20028;-71
2021/11/27 07:32:48;;;;;;;20.27;2.65;;;;;;;;;;5076609;28;20024;-72
2021/11/27 07:35:14;;;;;;;16.77;2.15;;;;;;;;;;5076073;28;20050;-71
2021/11/27 07:37:40;;;;;;;9.65;1.40;;;;;;;;;;5076022;28;20021;-70
2021/11/27 07:40:06;;;;;;;8.88;1.50;;;;;;;;;;5075993;28;20071;-70
2021/11/27 07:42:32;;;;;;;7.07;1.10;;;;;;;;;;5058045;28;20020;-69
2021/11/27 07:44:58;;;;;;;23.08;2.13;;;;;;;;;;5058055;28;20114;-68
2021/11/27 07:47:24;;;;;;;33.97;2.17;;;;;;;;;;5075991;28;20063;-70
2021/11/27 07:49:50;;;;;;;52.30;2.13;;;;;;;;;;5075601;28;20024;-68
2021/11/27 07:52:21;;;;;;;79.68;2.97;;;;;;;;;;5076099;28;20021;-68
2021/11/27 07:54:47;;;;;;;49.97;2.70;;;;;;;;;;5057552;28;20032;-69
2021/11/27 07:57:13;;;;;;;37.60;2.97;;;;;;;;;;5057876;28;20020;-68
2021/11/27 07:59:39;;;;;;;32.80;2.30;;;;;;;;;;5057478;28;20520;-68
2021/11/27 08:02:05;;;;;;;33.58;2.50;;;;;;;;;;5057177;28;20392;-68
2021/11/27 08:04:31;;;;;;;28.52;2.38;;;;;;;;;;5075467;28;20440;-68
2021/11/27 08:06:57;;;;;;;19.73;1.70;;;;;;;;;;5075344;28;20029;-68
2021/11/27 08:09:23;;;;;;;17.45;1.50;;;;;;;;;;5075161;28;20028;-69
2021/11/27 08:11:49;;;;;;;23.75;2.10;;;;;;;;;;5075588;28;20032;-70
2021/11/27 08:14:15;;;;;;;16.45;1.52;;;;;;;;;;5074764;28;20044;-68
2021/11/27 08:16:41;;;;;;;20.67;2.22;;;;;;;;;;5075112;28;20028;-69
2021/11/27 08:19:07;;;;;;;29.83;2.45;;;;;;;;;;5073760;28;20077;-63
2021/11/27 08:21:32;;;;;;;45.00;2.72;;;;;;;;;;5055523;28;20036;-66
2021/11/27 08:23:58;;;;;;;57.25;2.50;;;;;;;;;;5071206;28;20028;-64
2021/11/27 08:26:24;;;;;;;30.63;2.03;;;;;;;;;;5074989;28;20460;-67
2021/11/27 08:28:50;;;;;;;53.35;3.25;;;;;;;;;;5074995;28;20036;-67
2021/11/27 08:31:16;;;;;;;26.00;2.20;;;;;;;;;;5074096;28;20055;-66
2021/11/27 08:33:43;;;;;;;15.90;2.00;;;;;;;;;;5074780;28;20028;-68
2021/11/27 08:36:09;;;;;;;27.45;2.05;;;;;;;;;;5074791;28;20473;-67
2021/11/27 08:38:35;;;;;;;15.32;1.92;;;;;;;;;;5056792;28;20071;-68
2021/11/27 08:41:01;;;;;;;20.30;2.30;;;;;;;;;;5075007;28;20028;-68
2021/11/27 08:43:27;;;;;;;22.92;2.03;;;;;;;;;;5074146;28;20434;-68
2021/11/27 08:45:53;;;;;;;15.52;2.17;;;;;;;;;;5075196;28;20024;-68
2021/11/27 08:48:19;;;;;;;17.33;2.08;;;;;;;;;;5056257;28;20119;-68
2021/11/27 08:50:45;;;;;;;12.50;1.80;;;;;;;;;;5056675;28;20048;-68
2021/11/27 08:53:11;;;;;;;15.02;2.10;;;;;;;;;;5074876;28;20099;-68
2021/11/27 08:55:37;;;;;;;15.45;1.55;;;;;;;;;;5074946;28;20112;-68
2021/11/27 08:58:03;;;;;;;11.30;1.90;;;;;;;;;;5074362;28;20119;-68
2021/11/27 09:00:29;;;;;;;6.55;1.63;;;;;;;;;;5074415;28;20422;-68
2021/11/27 09:02:57;;;;;;;6.50;1.60;;;;;;;;;;5074486;28;20048;-68
2021/11/27 09:05:24;;;;;;;10.60;1.80;;;;;;;;;;5073751;28;20380;-68
2021/11/27 09:07:50;;;;;;;7.40;1.38;;;;;;;;;;5074399;28;20028;-69
2021/11/27 09:10:17;;;;;;;12.18;1.63;;;;;;;;;;5056501;28;20090;-68
2021/11/27 09:12:43;;;;;;;13.27;1.60;;;;;;;;;;5074462;28;20040;-68
2021/11/27 09:15:09;;;;;;;10.05;1.67;;;;;;;;;;5074539;28;20025;-68
2021/11/27 09:17:35;;;;;;;8.13;1.80;;;;;;;;;;5056324;28;20027;-68
2021/11/27 09:20:01;;;;;;;8.18;1.65;;;;;;;;;;5074145;28;20464;-68
2021/11/27 09:22:27;;;;;;;12.25;1.50;;;;;;;;;;5073973;28;20021;-68
2021/11/27 09:24:53;;;;;;;12.23;1.70;;;;;;;;;;5062369;28;20024;-68
2021/11/27 09:27:19;;;;;;;6.55;1.38;;;;;;;;;;5054448;28;20017;-68
2021/11/27 09:29:45;;;;;;;7.15;1.70;;;;;;;;;;5054056;28;20025;-68
2021/11/27 09:32:11;;;;;;;6.45;1.67;;;;;;;;;;5073509;28;20054;-69
2021/11/27 09:34:37;;;;;;;9.30;1.50;;;;;;;;;;5074431;28;20017;-68
2021/11/27 09:37:04;;;;;;;5.18;1.40;;;;;;;;;;5056048;28;20086;-68
2021/11/27 09:39:32;;;;;;;12.70;1.95;;;;;;;;;;5073848;28;20059;-67
2021/11/27 09:41:58;;;;;;;5.40;1.55;;;;;;;;;;5073856;28;20021;-68
2021/11/27 09:44:24;;;;;;;4.32;1.40;;;;;;;;;;5073783;28;20024;-68
2021/11/27 09:46:51;;;;;;;5.68;2.13;;;;;;;;;;5073874;28;20040;-68
2021/11/27 09:49:22;;;;;;;7.97;1.40;;;;;;;;;;5073661;28;20060;-68
2021/11/27 09:51:50;;;;;;;5.82;1.30;;;;;;;;;;5074091;28;20036;-68
2021/11/27 09:54:17;;;;;;;4.18;1.40;;;;;;;;;;5073513;28;20021;-68
2021/11/27 09:56:44;;;;;;;8.65;1.40;;;;;;;;;;5073714;28;20024;-68
2021/11/27 09:59:10;;;;;;;4.90;1.60;;;;;;;;;;5073556;28;20032;-68
2021/11/27 10:01:37;;;;;;;5.28;1.77;;;;;;;;;;5073684;28;20024;-68
2021/11/27 10:04:04;;;;;;;8.95;1.70;;;;;;;;;;5073494;28;20059;-68
2021/11/27 10:06:32;;;;;;;4.10;1.40;;;;;;;;;;5073449;28;20375;-68
2021/11/27 10:08:58;;;;;;;4.00;1.40;;;;;;;;;;5073454;28;20158;-68
2021/11/27 10:11:25;;;;;;;4.90;1.83;;;;;;;;;;5073579;28;20139;-68
2021/11/27 10:13:52;;;;;;;3.70;1.60;;;;;;;;;;5073067;28;20068;-68
2021/11/27 10:16:18;;;;;;;6.30;1.48;;;;;;;;;;5073411;28;20036;-67
2021/11/27 10:18:44;;;;;;;3.00;1.42;;;;;;;;;;5073162;28;20040;-68
2021/11/27 10:21:17;;;;;;;5.07;1.83;;;;;;;;;;5072255;28;20040;-68
2021/11/27 10:23:43;;;;;;;6.20;1.60;;;;;;;;;;5073437;28;20024;-68
2021/11/27 10:26:29;;;;;;;7.05;1.95;;;;;;;;;;5073326;28;20486;-68
2021/11/27 10:29:11;;;;;;;4.60;1.88;;;;;;;;;;5073152;28;20025;-68
2021/11/27 10:31:37;;;;;;;6.30;2.10;;;;;;;;;;5055349;28;20106;-68
2021/11/27 10:34:03;;;;;;;5.55;2.13;;;;;;;;;;5073029;28;20423;-68
2021/11/27 10:36:32;;;;;;;3.90;1.75;;;;;;;;;;5073256;28;20082;-69
2021/11/27 10:39:05;;;;;;;5.75;1.92;;;;;;;;;;5073455;28;20032;-68
2021/11/27 10:41:36;;;;;;;6.85;2.00;;;;;;;;;;5055092;28;20021;-68
2021/11/27 10:44:06;;;;;;;5.35;2.30;;;;;;;;;;5073363;28;20031;-68
2021/11/27 10:46:35;;;;;;;3.95;1.80;;;;;;;;;;5072943;28;20026;-68
2021/11/27 10:49:02;;;;;;;7.32;2.38;;;;;;;;;;5052738;28;20491;-68
2021/11/27 10:51:28;;;;;;;4.32;2.05;;;;;;;;;;5052913;28;20032;-69
2021/11/27 10:53:56;;;;;;;5.63;2.20;;;;;;;;;;5053131;28;20028;-68
2021/11/27 10:56:37;;;;;;;4.90;1.88;;;;;;;;;;5056986;28;20098;-68
2021/11/27 10:59:05;;;;;;;4.53;1.65;;;;;;;;;;5057027;28;20520;-68
2021/11/27 11:01:31;;;;;;;6.63;2.00;;;;;;;;;;5057218;28;20017;-68
2021/11/27 11:04:13;;;;;;;6.18;1.70;;;;;;;;;;5056852;28;20029;-68
2021/11/27 11:06:39;;;;;;;5.05;2.08;;;;;;;;;;5057071;28;20017;-68
2021/11/27 11:09:05;;;;;;;4.13;1.75;;;;;;;;;;5056599;28;20479;-68
2021/11/27 11:11:31;;;;;;;4.35;1.80;;;;;;;;;;5056870;28;20037;-68
2021/11/27 11:13:59;;;;;;;4.50;1.90;;;;;;;;;;5056295;28;20071;-68
2021/11/27 11:16:25;;;;;;;5.45;1.60;;;;;;;;;;5056750;28;20025;-68
2021/11/27 11:18:52;;;;;;;6.03;1.42;;;;;;;;;;5062871;28;20023;-68
2021/11/27 11:21:19;;;;;;;4.50;1.40;;;;;;;;;;5076473;28;20024;-68
2021/11/27 11:23:45;;;;;;;3.92;1.42;;;;;;;;;;5076198;28;20510;-68
2021/11/27 11:26:13;;;;;;;3.22;1.45;;;;;;;;;;5076515;28;20025;-68
2021/11/27 11:28:55;;;;;;;3.40;1.30;;;;;;;;;;5076792;28;20029;-68
2021/11/27 11:31:34;;;;;;;3.03;1.40;;;;;;;;;;5076343;28;20044;-68
2021/11/27 11:34:01;;;;;;;2.13;1.15;;;;;;;;;;5076125;28;20369;-68
2021/11/27 11:36:27;;;;;;;3.05;1.15;;;;;;;;;;5076316;28;20357;-68
2021/11/27 11:38:57;;;;;;;4.40;1.25;;;;;;;;;;5076121;28;20455;-68
2021/11/27 11:41:24;;;;;;;4.50;1.40;;;;;;;;;;5076340;28;20464;-68
2021/11/27 11:43:51;;;;;;;3.45;1.10;;;;;;;;;;5075987;28;20039;-68
2021/11/27 11:46:17;;;;;;;3.67;1.20;;;;;;;;;;5076162;28;20028;-68
2021/11/27 11:48:51;;;;;;;3.85;1.17;;;;;;;;;;5075978;28;20464;-68
2021/11/27 11:51:24;;;;;;;2.67;1.10;;;;;;;;;;5058010;28;20029;-68
2021/11/27 11:53:53;;;;;;;2.60;1.05;;;;;;;;;;5075813;28;20107;-68
2021/11/27 11:56:19;;;;;;;2.85;1.27;;;;;;;;;;5076156;28;20056;-69
2021/11/27 11:58:49;;;;;;;2.53;1.10;;;;;;;;;;5076114;28;20067;-68
2021/11/27 12:01:17;;;;;;;2.72;1.20;;;;;;;;;;5075901;28;20107;-68
2021/11/27 12:03:43;;;;;;;3.00;1.20;;;;;;;;;;5075723;28;20027;-68
2021/11/27 12:06:10;;;;;;;4.32;1.00;;;;;;;;;;5073564;28;20504;-68
2021/11/27 12:08:48;;;;;;;5.18;1.33;;;;;;;;;;5075801;28;20464;-67
2021/11/27 12:11:33;;;;;;;2.58;0.90;;;;;;;;;;5075579;28;20107;-68
2021/11/27 12:13:59;;;;;;;1.58;0.90;;;;;;;;;;5075673;28;20059;-68
2021/11/27 12:16:25;;;;;;;3.60;1.13;;;;;;;;;;5075784;28;20107;-67
2021/11/27 12:19:06;;;;;;;1.65;0.90;;;;;;;;;;5057448;28;20119;-68
2021/11/27 12:21:32;;;;;;;2.45;0.90;;;;;;;;;;5075527;28;20028;-67
2021/11/27 12:23:58;;;;;;;4.72;1.10;;;;;;;;;;5074758;28;20032;-68
2021/11/27 12:26:26;;;;;;;3.30;1.27;;;;;;;;;;5075437;28;20029;-68
2021/11/27 12:28:52;;;;;;;2.60;0.93;;;;;;;;;;5075448;28;20032;-68
2021/11/27 12:31:22;;;;;;;2.25;0.90;;;;;;;;;;5057305;28;20040;-68
2021/11/27 12:33:57;;;;;;;2.88;1.02;;;;;;;;;;5057742;28;20016;-68
2021/11/27 12:36:23;;;;;;;1.75;0.90;;;;;;;;;;5056996;28;20032;-68
2021/11/27 12:38:55;;;;;;;2.17;1.00;;;;;;;;;;5057261;28;20119;-68
2021/11/27 12:41:25;;;;;;;2.88;1.10;;;;;;;;;;5074589;28;20029;-68
2021/11/27 12:44:09;;;;;;;2.33;0.95;;;;;;;;;;5075153;28;20040;-68
2021/11/27 12:46:35;;;;;;;1.55;0.90;;;;;;;;;;5075324;28;20028;-68
2021/11/27 12:49:01;;;;;;;2.15;0.90;;;;;;;;;;5074948;28;20056;-68
2021/11/27 12:51:27;;;;;;;2.30;1.00;;;;;;;;;;5074790;28;20071;-68
2021/11/27 12:53:59;;;;;;;2.13;1.00;;;;;;;;;;5074863;28;20055;-68
2021/11/27 12:56:26;;;;;;;2.63;1.00;;;;;;;;;;5074623;28;20064;-68
2021/11/27 12:58:52;;;;;;;2.80;0.95;;;;;;;;;;5074807;28;20323;-67
2021/11/27 13:01:28;;;;;;;1.23;0.75;;;;;;;;;;5074718;28;20031;-68
2021/11/27 13:03:55;;;;;;;3.20;0.93;;;;;;;;;;5074642;28;20476;-68
2021/11/27 13:06:21;;;;;;;2.42;0.63;;;;;;;;;;5074529;28;20039;-68
2021/11/27 13:08:47;;;;;;;2.33;1.10;;;;;;;;;;5074700;28;20021;-69
2021/11/27 13:11:15;;;;;;;1.30;0.80;;;;;;;;;;5074622;28;20090;-68
2021/11/27 13:13:42;;;;;;;2.47;0.90;;;;;;;;;;5073795;28;20407;-68
2021/11/27 13:16:10;;;;;;;2.53;0.90;;;;;;;;;;5074448;28;20029;-69
2021/11/27 13:18:36;;;;;;;2.70;1.08;;;;;;;;;;5074029;28;20468;-68
2021/11/27 13:21:06;;;;;;;2.38;0.85;;;;;;;;;;5074358;28;20025;-68
2021/11/27 13:23:35;;;;;;;1.67;0.70;;;;;;;;;;5074144;28;20024;-69
2021/11/27 13:26:08;;;;;;;2.85;1.05;;;;;;;;;;5074669;28;20033;-68
2021/11/27 13:28:46;;;;;;;1.83;0.90;;;;;;;;;;5074404;28;20020;-68
2021/11/27 13:31:29;;;;;;;2.42;0.88;;;;;;;;;;5074095;28;20029;-68
2021/11/27 13:33:55;;;;;;;;;;;;;;;;;;5074523;28;20016;-69
2021/11/27 13:36:24;;;;;;;1.27;0.80;;;;;;;;;;5074258;28;19915;-68
2021/11/27 13:38:51;;;;;;;1.48;0.70;;;;;;;;;;5073914;28;20543;-68
2021/11/27 13:41:17;;;;;;;2.22;0.80;;;;;;;;;;5073262;28;20047;-68
2021/11/27 13:43:46;;;;;;;2.05;0.88;;;;;;;;;;5073706;28;20403;-69
2021/11/27 13:46:12;;;;;;;0.90;0.70;;;;;;;;;;5073545;28;20032;-68
2021/11/27 13:48:38;;;;;;;1.50;0.70;;;;;;;;;;5055832;28;20040;-68
2021/11/27 13:51:04;;;;;;;1.10;0.70;;;;;;;;;;5073426;28;20086;-69
2021/11/27 13:53:31;;;;;;;2.72;0.70;;;;;;;;;;5073864;28;20025;-68
2021/11/27 13:55:59;;;;;;;2.38;0.80;;;;;;;;;;5055528;28;20067;-68
2021/11/27 13:58:25;;;;;;;2.13;0.80;;;;;;;;;;5055676;28;20074;-68
2021/11/27 14:00:51;;;;;;;1.15;0.68;;;;;;;;;;5073406;28;20056;-68
2021/11/27 14:03:20;;;;;;;1.73;0.85;;;;;;;;;;5073498;28;20570;-68
2021/11/27 14:05:52;;;;;;;1.27;0.68;;;;;;;;;;5073449;28;20372;-68
2021/11/27 14:08:21;;;;;;;1.88;0.60;;;;;;;;;;5073469;28;20073;-68
2021/11/27 14:10:59;;;;;;;2.28;1.05;;;;;;;;;;5073372;28;20036;-68
2021/11/27 14:13:25;;;;;;;1.05;0.70;;;;;;;;;;5055571;28;20052;-68
2021/11/27 14:15:51;;;;;;;1.15;0.75;;;;;;;;;;5053196;28;20105;-68
2021/11/27 14:18:26;;;;;;;1.52;0.80;;;;;;;;;;5053977;28;20063;-68
2021/11/27 14:20:53;;;;;;;1.42;0.80;;;;;;;;;;5053509;28;20017;-68
2021/11/27 14:23:24;;;;;;;2.35;0.77;;;;;;;;;;5053355;28;20059;-68
2021/11/27 14:26:07;;;;;;;2.10;0.65;;;;;;;;;;5053657;28;20028;-68
2021/11/27 14:28:38;;;;;;;1.60;0.80;;;;;;;;;;5058475;28;20020;-68
2021/11/27 14:31:12;;;;;;;1.20;0.70;;;;;;;;;;5072962;28;20068;-68
2021/11/27 14:33:39;;;;;;;0.70;0.70;;;;;;;;;;5056997;28;20120;-69
2021/11/27 14:36:06;;;;;;;2.85;0.90;;;;;;;;;;5093502;28;20016;-68
2021/11/27 14:38:37;;;;;;;1.02;0.68;;;;;;;;;;5092985;28;20097;-68
2021/11/27 14:41:07;;;;;;;0.68;0.60;;;;;;;;;;5093529;28;20024;-69